sensor_id;sensor_type;location;lat;lon;timestamp;P1;durP1;ratioP1;P2;durP2;ratioP2
54201;SDS011;40108;53.152;5.844;2023-03-19T00:00:08;5.07;;;4.18;;
54201;SDS011;40108;53.152;5.844;2023-03-19T00:02:35;5.50;;;4.15;;
54201;SDS011;40108;53.152;5.844;2023-03-19T00:05:02;4.65;;;3.95;;
54201;SDS011;40108;53.152;5.844;2023-03-19T00:07:28;6.15;;;4.50;;
54201;SDS011;40108;53.152;5.844;2023-03-19T00:09:54;6.72;;;4.90;;
54201;SDS011;40108;53.152;5.844;2023-03-19T00:12:20;5.55;;;3.97;;
54201;SDS011;40108;53.152;5.844;2023-03-19T00:14:47;6.85;;;4.30;;
54201;SDS011;40108;53.152;5.844;2023-03-19T00:17:13;5.38;;;4.13;;
54201;SDS011;40108;53.152;5.844;2023-03-19T00:19:38;5.85;;;3.38;;
54201;SDS011;40108;53.152;5.844;2023-03-19T00:22:04;5.22;;;3.60;;
54201;SDS011;40108;53.152;5.844;2023-03-19T00:24:31;8.35;;;3.85;;
54201;SDS011;40108;53.152;5.844;2023-03-19T00:26:57;4.25;;;3.40;;
54201;SDS011;40108;53.152;5.844;2023-03-19T00:29:22;5.60;;;3.63;;
54201;SDS011;40108;53.152;5.844;2023-03-19T00:31:48;4.85;;;3.53;;
54201;SDS011;40108;53.152;5.844;2023-03-19T00:34:14;5.30;;;4.13;;
54201;SDS011;40108;53.152;5.844;2023-03-19T00:36:43;6.22;;;4.65;;
54201;SDS011;40108;53.152;5.844;2023-03-19T00:39:09;5.88;;;3.83;;
54201;SDS011;40108;53.152;5.844;2023-03-19T00:41:35;4.65;;;3.17;;
54201;SDS011;40108;53.152;5.844;2023-03-19T00:44:01;6.50;;;4.30;;
54201;SDS011;40108;53.152;5.844;2023-03-19T00:46:27;4.30;;;3.17;;
54201;SDS011;40108;53.152;5.844;2023-03-19T00:48:53;4.95;;;3.53;;
54201;SDS011;40108;53.152;5.844;2023-03-19T00:51:20;4.25;;;2.83;;
54201;SDS011;40108;53.152;5.844;2023-03-19T00:53:47;5.70;;;3.40;;
54201;SDS011;40108;53.152;5.844;2023-03-19T00:56:13;6.47;;;3.45;;
54201;SDS011;40108;53.152;5.844;2023-03-19T00:58:42;7.32;;;4.35;;
54201;SDS011;40108;53.152;5.844;2023-03-19T01:01:08;4.43;;;3.60;;
54201;SDS011;40108;53.152;5.844;2023-03-19T01:03:36;4.80;;;3.85;;
54201;SDS011;40108;53.152;5.844;2023-03-19T01:06:02;5.80;;;3.40;;
54201;SDS011;40108;53.152;5.844;2023-03-19T01:08:28;5.30;;;3.25;;
54201;SDS011;40108;53.152;5.844;2023-03-19T01:10:55;3.72;;;3.42;;
54201;SDS011;40108;53.152;5.844;2023-03-19T01:13:21;5.18;;;3.35;;
54201;SDS011;40108;53.152;5.844;2023-03-19T01:15:50;4.97;;;3.53;;
54201;SDS011;40108;53.152;5.844;2023-03-19T01:18:17;5.35;;;3.55;;
54201;SDS011;40108;53.152;5.844;2023-03-19T01:20:43;3.78;;;3.25;;
54201;SDS011;40108;53.152;5.844;2023-03-19T01:23:08;5.00;;;3.50;;
54201;SDS011;40108;53.152;5.844;2023-03-19T01:25:34;4.00;;;3.58;;
54201;SDS011;40108;53.152;5.844;2023-03-19T01:28:00;4.50;;;3.33;;
54201;SDS011;40108;53.152;5.844;2023-03-19T01:30:27;4.50;;;3.60;;
54201;SDS011;40108;53.152;5.844;2023-03-19T01:32:52;4.80;;;3.78;;
54201;SDS011;40108;53.152;5.844;2023-03-19T01:35:18;5.40;;;3.80;;
54201;SDS011;40108;53.152;5.844;2023-03-19T01:37:44;5.03;;;3.95;;
54201;SDS011;40108;53.152;5.844;2023-03-19T01:40:11;7.47;;;5.80;;
54201;SDS011;40108;53.152;5.844;2023-03-19T01:45:37;7.95;;;6.07;;
54201;SDS011;40108;53.152;5.844;2023-03-19T01:48:05;8.60;;;6.22;;
54201;SDS011;40108;53.152;5.844;2023-03-19T01:50:43;8.35;;;6.80;;
54201;SDS011;40108;53.152;5.844;2023-03-19T01:53:10;7.20;;;6.43;;
54201;SDS011;40108;53.152;5.844;2023-03-19T01:55:38;9.48;;;7.28;;
54201;SDS011;40108;53.152;5.844;2023-03-19T01:58:05;9.10;;;7.30;;
54201;SDS011;40108;53.152;5.844;2023-03-19T02:00:33;9.75;;;8.25;;
54201;SDS011;40108;53.152;5.844;2023-03-19T02:03:02;11.45;;;7.65;;
54201;SDS011;40108;53.152;5.844;2023-03-19T02:05:28;9.68;;;8.00;;
54201;SDS011;40108;53.152;5.844;2023-03-19T02:07:55;11.63;;;8.70;;
54201;SDS011;40108;53.152;5.844;2023-03-19T02:10:25;8.10;;;6.63;;
54201;SDS011;40108;53.152;5.844;2023-03-19T02:12:51;10.93;;;8.45;;
54201;SDS011;40108;53.152;5.844;2023-03-19T02:15:17;11.02;;;8.40;;
54201;SDS011;40108;53.152;5.844;2023-03-19T02:17:43;10.18;;;8.75;;
54201;SDS011;40108;53.152;5.844;2023-03-19T02:28:14;15.50;;;10.82;;
54201;SDS011;40108;53.152;5.844;2023-03-19T02:30:43;16.98;;;11.73;;
54201;SDS011;40108;53.152;5.844;2023-03-19T02:33:12;16.02;;;11.43;;
54201;SDS011;40108;53.152;5.844;2023-03-19T02:38:08;16.90;;;12.15;;
54201;SDS011;40108;53.152;5.844;2023-03-19T02:40:37;22.52;;;13.88;;
54201;SDS011;40108;53.152;5.844;2023-03-19T02:45:33;21.77;;;14.57;;
54201;SDS011;40108;53.152;5.844;2023-03-19T02:47:59;21.60;;;15.52;;
54201;SDS011;40108;53.152;5.844;2023-03-19T02:50:25;22.73;;;15.90;;
54201;SDS011;40108;53.152;5.844;2023-03-19T02:52:51;27.45;;;17.75;;
54201;SDS011;40108;53.152;5.844;2023-03-19T02:55:17;27.17;;;18.15;;
54201;SDS011;40108;53.152;5.844;2023-03-19T02:57:44;27.25;;;19.40;;
54201;SDS011;40108;53.152;5.844;2023-03-19T03:00:10;28.13;;;19.23;;
54201;SDS011;40108;53.152;5.844;2023-03-19T03:02:36;28.45;;;19.55;;
54201;SDS011;40108;53.152;5.844;2023-03-19T03:05:03;31.90;;;20.90;;
54201;SDS011;40108;53.152;5.844;2023-03-19T03:07:30;30.85;;;20.90;;
54201;SDS011;40108;53.152;5.844;2023-03-19T03:09:56;29.85;;;20.48;;
54201;SDS011;40108;53.152;5.844;2023-03-19T03:12:22;28.58;;;20.27;;
54201;SDS011;40108;53.152;5.844;2023-03-19T03:14:48;28.27;;;20.10;;
54201;SDS011;40108;53.152;5.844;2023-03-19T03:17:14;27.13;;;19.50;;
54201;SDS011;40108;53.152;5.844;2023-03-19T03:19:40;31.88;;;20.30;;
54201;SDS011;40108;53.152;5.844;2023-03-19T03:22:06;26.92;;;19.05;;
54201;SDS011;40108;53.152;5.844;2023-03-19T03:24:32;27.73;;;19.77;;
54201;SDS011;40108;53.152;5.844;2023-03-19T03:26:57;28.30;;;19.42;;
54201;SDS011;40108;53.152;5.844;2023-03-19T03:29:23;23.77;;;18.60;;
54201;SDS011;40108;53.152;5.844;2023-03-19T03:31:49;26.15;;;18.95;;
54201;SDS011;40108;53.152;5.844;2023-03-19T03:34:15;27.27;;;19.25;;
54201;SDS011;40108;53.152;5.844;2023-03-19T03:36:42;26.48;;;18.60;;
54201;SDS011;40108;53.152;5.844;2023-03-19T03:39:07;27.67;;;18.17;;
54201;SDS011;40108;53.152;5.844;2023-03-19T03:41:33;23.90;;;18.35;;
54201;SDS011;40108;53.152;5.844;2023-03-19T03:43:59;23.67;;;18.10;;
54201;SDS011;40108;53.152;5.844;2023-03-19T03:46:25;25.92;;;17.20;;
54201;SDS011;40108;53.152;5.844;2023-03-19T03:48:50;27.73;;;18.85;;
54201;SDS011;40108;53.152;5.844;2023-03-19T03:51:19;24.63;;;17.40;;
54201;SDS011;40108;53.152;5.844;2023-03-19T03:53:46;29.40;;;18.63;;
54201;SDS011;40108;53.152;5.844;2023-03-19T03:56:12;24.92;;;17.90;;
54201;SDS011;40108;53.152;5.844;2023-03-19T03:58:38;25.45;;;17.45;;
54201;SDS011;40108;53.152;5.844;2023-03-19T04:01:03;25.60;;;17.05;;
54201;SDS011;40108;53.152;5.844;2023-03-19T04:03:31;25.63;;;17.25;;
54201;SDS011;40108;53.152;5.844;2023-03-19T04:05:56;23.83;;;17.00;;
54201;SDS011;40108;53.152;5.844;2023-03-19T04:08:22;25.23;;;18.48;;
54201;SDS011;40108;53.152;5.844;2023-03-19T04:10:48;26.50;;;18.50;;
54201;SDS011;40108;53.152;5.844;2023-03-19T04:13:14;25.50;;;18.75;;
54201;SDS011;40108;53.152;5.844;2023-03-19T04:15:41;29.25;;;18.88;;
54201;SDS011;40108;53.152;5.844;2023-03-19T04:18:07;26.38;;;18.38;;
54201;SDS011;40108;53.152;5.844;2023-03-19T04:20:33;24.33;;;18.13;;
54201;SDS011;40108;53.152;5.844;2023-03-19T04:22:59;28.90;;;19.42;;
54201;SDS011;40108;53.152;5.844;2023-03-19T04:25:26;25.92;;;18.77;;
54201;SDS011;40108;53.152;5.844;2023-03-19T04:27:51;32.30;;;19.95;;
54201;SDS011;40108;53.152;5.844;2023-03-19T04:30:17;25.15;;;17.60;;
54201;SDS011;40108;53.152;5.844;2023-03-19T04:32:44;25.45;;;18.73;;
54201;SDS011;40108;53.152;5.844;2023-03-19T04:35:10;33.83;;;20.08;;
54201;SDS011;40108;53.152;5.844;2023-03-19T04:37:36;32.30;;;20.15;;
54201;SDS011;40108;53.152;5.844;2023-03-19T04:40:02;33.60;;;22.33;;
54201;SDS011;40108;53.152;5.844;2023-03-19T04:42:28;32.63;;;21.90;;
54201;SDS011;40108;53.152;5.844;2023-03-19T04:44:54;30.67;;;21.08;;
54201;SDS011;40108;53.152;5.844;2023-03-19T04:47:19;34.88;;;22.48;;
54201;SDS011;40108;53.152;5.844;2023-03-19T04:49:47;33.83;;;22.67;;
54201;SDS011;40108;53.152;5.844;2023-03-19T04:52:13;37.28;;;23.95;;
54201;SDS011;40108;53.152;5.844;2023-03-19T04:54:39;38.10;;;23.38;;
54201;SDS011;40108;53.152;5.844;2023-03-19T04:57:04;39.40;;;23.77;;
54201;SDS011;40108;53.152;5.844;2023-03-19T04:59:31;39.70;;;24.42;;
54201;SDS011;40108;53.152;5.844;2023-03-19T05:01:56;37.72;;;24.30;;
54201;SDS011;40108;53.152;5.844;2023-03-19T05:04:22;42.33;;;23.80;;
54201;SDS011;40108;53.152;5.844;2023-03-19T05:06:48;40.50;;;26.45;;
54201;SDS011;40108;53.152;5.844;2023-03-19T05:09:15;41.08;;;25.08;;
54201;SDS011;40108;53.152;5.844;2023-03-19T05:11:40;40.83;;;24.90;;
54201;SDS011;40108;53.152;5.844;2023-03-19T05:14:06;49.80;;;26.52;;
54201;SDS011;40108;53.152;5.844;2023-03-19T05:16:32;45.83;;;25.65;;
54201;SDS011;40108;53.152;5.844;2023-03-19T05:18:59;45.08;;;25.88;;
54201;SDS011;40108;53.152;5.844;2023-03-19T05:21:25;44.70;;;25.85;;
54201;SDS011;40108;53.152;5.844;2023-03-19T05:23:51;44.38;;;26.27;;
54201;SDS011;40108;53.152;5.844;2023-03-19T05:26:18;42.95;;;26.15;;
54201;SDS011;40108;53.152;5.844;2023-03-19T05:28:45;43.38;;;24.90;;
54201;SDS011;40108;53.152;5.844;2023-03-19T05:31:11;44.95;;;24.90;;
54201;SDS011;40108;53.152;5.844;2023-03-19T05:33:37;44.92;;;25.75;;
54201;SDS011;40108;53.152;5.844;2023-03-19T05:36:03;45.97;;;24.77;;
54201;SDS011;40108;53.152;5.844;2023-03-19T05:38:29;47.15;;;25.17;;
54201;SDS011;40108;53.152;5.844;2023-03-19T05:40:54;40.15;;;24.05;;
54201;SDS011;40108;53.152;5.844;2023-03-19T05:43:20;44.90;;;24.73;;
54201;SDS011;40108;53.152;5.844;2023-03-19T05:45:50;43.17;;;24.48;;
54201;SDS011;40108;53.152;5.844;2023-03-19T05:48:16;43.88;;;23.52;;
54201;SDS011;40108;53.152;5.844;2023-03-19T05:50:42;47.00;;;24.83;;
54201;SDS011;40108;53.152;5.844;2023-03-19T05:53:08;44.15;;;25.55;;
54201;SDS011;40108;53.152;5.844;2023-03-19T05:55:34;47.15;;;26.13;;
54201;SDS011;40108;53.152;5.844;2023-03-19T05:57:59;49.90;;;26.70;;
54201;SDS011;40108;53.152;5.844;2023-03-19T06:00:25;46.28;;;25.60;;
54201;SDS011;40108;53.152;5.844;2023-03-19T06:02:51;47.85;;;27.77;;
54201;SDS011;40108;53.152;5.844;2023-03-19T06:05:19;52.20;;;28.77;;
54201;SDS011;40108;53.152;5.844;2023-03-19T06:07:45;56.30;;;28.40;;
54201;SDS011;40108;53.152;5.844;2023-03-19T06:10:11;54.67;;;30.10;;
54201;SDS011;40108;53.152;5.844;2023-03-19T06:12:37;61.10;;;30.92;;
54201;SDS011;40108;53.152;5.844;2023-03-19T06:15:02;61.10;;;31.08;;
54201;SDS011;40108;53.152;5.844;2023-03-19T06:17:28;64.15;;;31.50;;
54201;SDS011;40108;53.152;5.844;2023-03-19T06:19:54;64.13;;;31.98;;
54201;SDS011;40108;53.152;5.844;2023-03-19T06:22:20;76.63;;;34.53;;
54201;SDS011;40108;53.152;5.844;2023-03-19T06:24:46;70.10;;;33.20;;
54201;SDS011;40108;53.152;5.844;2023-03-19T06:27:11;69.38;;;31.98;;
54201;SDS011;40108;53.152;5.844;2023-03-19T06:29:37;73.80;;;33.70;;
54201;SDS011;40108;53.152;5.844;2023-03-19T06:32:03;69.63;;;33.13;;
54201;SDS011;40108;53.152;5.844;2023-03-19T06:34:29;68.20;;;33.92;;
54201;SDS011;40108;53.152;5.844;2023-03-19T06:36:55;71.07;;;34.63;;
54201;SDS011;40108;53.152;5.844;2023-03-19T06:39:21;67.78;;;33.80;;
54201;SDS011;40108;53.152;5.844;2023-03-19T06:41:46;67.53;;;32.80;;
54201;SDS011;40108;53.152;5.844;2023-03-19T06:44:12;75.15;;;35.90;;
54201;SDS011;40108;53.152;5.844;2023-03-19T06:46:38;70.43;;;35.58;;
54201;SDS011;40108;53.152;5.844;2023-03-19T06:49:03;77.00;;;38.22;;
54201;SDS011;40108;53.152;5.844;2023-03-19T06:51:29;68.22;;;35.55;;
54201;SDS011;40108;53.152;5.844;2023-03-19T06:53:55;75.05;;;36.45;;
54201;SDS011;40108;53.152;5.844;2023-03-19T06:56:21;74.43;;;36.38;;
54201;SDS011;40108;53.152;5.844;2023-03-19T06:58:46;69.35;;;34.80;;
54201;SDS011;40108;53.152;5.844;2023-03-19T07:01:12;70.25;;;34.92;;
54201;SDS011;40108;53.152;5.844;2023-03-19T07:03:38;72.38;;;36.85;;
54201;SDS011;40108;53.152;5.844;2023-03-19T07:06:03;70.43;;;35.15;;
54201;SDS011;40108;53.152;5.844;2023-03-19T07:08:31;76.38;;;36.70;;
54201;SDS011;40108;53.152;5.844;2023-03-19T07:11:03;67.40;;;33.88;;
54201;SDS011;40108;53.152;5.844;2023-03-19T07:13:31;63.55;;;33.13;;
54201;SDS011;40108;53.152;5.844;2023-03-19T07:15:57;67.80;;;33.78;;
54201;SDS011;40108;53.152;5.844;2023-03-19T07:18:23;68.28;;;34.25;;
54201;SDS011;40108;53.152;5.844;2023-03-19T07:20:49;71.13;;;35.70;;
54201;SDS011;40108;53.152;5.844;2023-03-19T07:23:17;73.00;;;32.97;;
54201;SDS011;40108;53.152;5.844;2023-03-19T07:25:43;77.05;;;33.33;;
54201;SDS011;40108;53.152;5.844;2023-03-19T07:28:08;77.07;;;31.55;;
54201;SDS011;40108;53.152;5.844;2023-03-19T07:30:34;87.28;;;34.65;;
54201;SDS011;40108;53.152;5.844;2023-03-19T07:33:02;92.55;;;37.03;;
54201;SDS011;40108;53.152;5.844;2023-03-19T07:35:28;99.95;;;40.63;;
54201;SDS011;40108;53.152;5.844;2023-03-19T07:37:54;103.13;;;43.45;;
54201;SDS011;40108;53.152;5.844;2023-03-19T07:40:20;97.53;;;42.70;;
54201;SDS011;40108;53.152;5.844;2023-03-19T07:42:46;102.30;;;44.78;;
54201;SDS011;40108;53.152;5.844;2023-03-19T07:45:11;99.03;;;44.97;;
54201;SDS011;40108;53.152;5.844;2023-03-19T07:47:37;102.07;;;44.42;;
54201;SDS011;40108;53.152;5.844;2023-03-19T07:50:04;93.78;;;45.05;;
54201;SDS011;40108;53.152;5.844;2023-03-19T07:52:30;97.80;;;42.50;;
54201;SDS011;40108;53.152;5.844;2023-03-19T07:54:56;100.18;;;46.15;;
54201;SDS011;40108;53.152;5.844;2023-03-19T07:57:21;103.43;;;46.30;;
54201;SDS011;40108;53.152;5.844;2023-03-19T07:59:49;103.15;;;45.55;;
54201;SDS011;40108;53.152;5.844;2023-03-19T08:02:15;106.10;;;42.83;;
54201;SDS011;40108;53.152;5.844;2023-03-19T08:04:41;119.18;;;46.63;;
54201;SDS011;40108;53.152;5.844;2023-03-19T08:07:07;122.15;;;45.90;;
54201;SDS011;40108;53.152;5.844;2023-03-19T08:09:37;133.90;;;46.60;;
54201;SDS011;40108;53.152;5.844;2023-03-19T08:12:04;135.88;;;46.25;;
54201;SDS011;40108;53.152;5.844;2023-03-19T08:14:31;120.32;;;43.28;;
54201;SDS011;40108;53.152;5.844;2023-03-19T08:16:57;111.07;;;42.53;;
54201;SDS011;40108;53.152;5.844;2023-03-19T08:19:23;103.57;;;42.92;;
54201;SDS011;40108;53.152;5.844;2023-03-19T08:21:49;108.78;;;41.50;;
54201;SDS011;40108;53.152;5.844;2023-03-19T08:24:15;119.90;;;39.92;;
54201;SDS011;40108;53.152;5.844;2023-03-19T08:26:41;118.20;;;38.10;;
54201;SDS011;40108;53.152;5.844;2023-03-19T08:29:07;95.57;;;35.90;;
54201;SDS011;40108;53.152;5.844;2023-03-19T08:31:33;103.65;;;33.35;;
54201;SDS011;40108;53.152;5.844;2023-03-19T08:33:59;143.95;;;32.45;;
54201;SDS011;40108;53.152;5.844;2023-03-19T08:36:28;87.13;;;27.75;;
54201;SDS011;40108;53.152;5.844;2023-03-19T08:38:54;114.75;;;25.33;;
54201;SDS011;40108;53.152;5.844;2023-03-19T08:41:20;92.93;;;25.42;;
54201;SDS011;40108;53.152;5.844;2023-03-19T08:43:46;88.53;;;23.95;;
54201;SDS011;40108;53.152;5.844;2023-03-19T08:46:12;70.63;;;23.10;;
54201;SDS011;40108;53.152;5.844;2023-03-19T08:48:38;77.13;;;23.20;;
54201;SDS011;40108;53.152;5.844;2023-03-19T08:51:03;65.90;;;21.77;;
54201;SDS011;40108;53.152;5.844;2023-03-19T08:53:29;69.97;;;22.17;;
54201;SDS011;40108;53.152;5.844;2023-03-19T08:55:57;73.10;;;24.23;;
54201;SDS011;40108;53.152;5.844;2023-03-19T08:58:25;64.72;;;22.45;;
54201;SDS011;40108;53.152;5.844;2023-03-19T09:00:52;71.18;;;21.85;;
54201;SDS011;40108;53.152;5.844;2023-03-19T09:03:18;58.45;;;21.40;;
54201;SDS011;40108;53.152;5.844;2023-03-19T09:05:45;73.63;;;21.70;;
54201;SDS011;40108;53.152;5.844;2023-03-19T09:08:11;63.60;;;21.52;;
54201;SDS011;40108;53.152;5.844;2023-03-19T09:10:38;71.05;;;22.92;;
54201;SDS011;40108;53.152;5.844;2023-03-19T09:13:04;59.72;;;21.20;;
54201;SDS011;40108;53.152;5.844;2023-03-19T09:15:30;65.47;;;22.77;;
54201;SDS011;40108;53.152;5.844;2023-03-19T09:17:55;61.40;;;20.92;;
54201;SDS011;40108;53.152;5.844;2023-03-19T09:20:21;59.35;;;22.08;;
54201;SDS011;40108;53.152;5.844;2023-03-19T09:22:47;63.42;;;21.73;;
54201;SDS011;40108;53.152;5.844;2023-03-19T09:25:12;58.70;;;22.75;;
54201;SDS011;40108;53.152;5.844;2023-03-19T09:27:38;61.38;;;23.25;;
54201;SDS011;40108;53.152;5.844;2023-03-19T09:30:04;64.95;;;23.48;;
54201;SDS011;40108;53.152;5.844;2023-03-19T09:32:33;60.72;;;24.02;;
54201;SDS011;40108;53.152;5.844;2023-03-19T09:35:00;65.00;;;24.77;;
54201;SDS011;40108;53.152;5.844;2023-03-19T09:37:25;65.50;;;26.27;;
54201;SDS011;40108;53.152;5.844;2023-03-19T09:39:51;65.80;;;24.63;;
54201;SDS011;40108;53.152;5.844;2023-03-19T09:44:55;58.55;;;23.58;;
54201;SDS011;40108;53.152;5.844;2023-03-19T09:50:19;52.03;;;22.63;;
54201;SDS011;40108;53.152;5.844;2023-03-19T09:52:54;51.67;;;24.35;;
54201;SDS011;40108;53.152;5.844;2023-03-19T10:01:26;68.07;;;30.73;;
54201;SDS011;40108;53.152;5.844;2023-03-19T10:06:33;54.83;;;24.13;;
54201;SDS011;40108;53.152;5.844;2023-03-19T10:14:49;44.40;;;21.13;;
54201;SDS011;40108;53.152;5.844;2023-03-19T10:17:51;49.00;;;22.98;;
54201;SDS011;40108;53.152;5.844;2023-03-19T10:25:53;52.47;;;22.38;;
54201;SDS011;40108;53.152;5.844;2023-03-19T10:28:22;44.25;;;20.48;;
54201;SDS011;40108;53.152;5.844;2023-03-19T10:33:43;40.47;;;19.45;;
54201;SDS011;40108;53.152;5.844;2023-03-19T10:36:16;38.45;;;19.40;;
54201;SDS011;40108;53.152;5.844;2023-03-19T10:38:46;39.33;;;19.77;;
54201;SDS011;40108;53.152;5.844;2023-03-19T10:43:46;39.97;;;19.73;;
54201;SDS011;40108;53.152;5.844;2023-03-19T10:46:16;46.97;;;21.20;;
54201;SDS011;40108;53.152;5.844;2023-03-19T10:48:43;43.78;;;23.02;;
54201;SDS011;40108;53.152;5.844;2023-03-19T10:51:12;49.42;;;25.48;;
54201;SDS011;40108;53.152;5.844;2023-03-19T10:53:40;45.10;;;24.67;;
54201;SDS011;40108;53.152;5.844;2023-03-19T10:56:17;40.13;;;22.15;;
54201;SDS011;40108;53.152;5.844;2023-03-19T10:59:03;38.92;;;21.92;;
54201;SDS011;40108;53.152;5.844;2023-03-19T11:01:44;35.95;;;19.92;;
54201;SDS011;40108;53.152;5.844;2023-03-19T11:04:16;35.10;;;20.27;;
54201;SDS011;40108;53.152;5.844;2023-03-19T11:06:53;38.17;;;20.88;;
54201;SDS011;40108;53.152;5.844;2023-03-19T11:09:37;43.75;;;21.25;;
54201;SDS011;40108;53.152;5.844;2023-03-19T11:12:07;40.60;;;21.83;;
54201;SDS011;40108;53.152;5.844;2023-03-19T11:14:41;37.95;;;20.70;;
54201;SDS011;40108;53.152;5.844;2023-03-19T11:17:17;38.63;;;20.17;;
54201;SDS011;40108;53.152;5.844;2023-03-19T11:19:51;37.40;;;19.98;;
54201;SDS011;40108;53.152;5.844;2023-03-19T11:22:20;39.40;;;20.98;;
54201;SDS011;40108;53.152;5.844;2023-03-19T11:24:58;41.13;;;19.77;;
54201;SDS011;40108;53.152;5.844;2023-03-19T11:27:33;40.50;;;20.70;;
54201;SDS011;40108;53.152;5.844;2023-03-19T11:30:00;36.17;;;20.13;;
54201;SDS011;40108;53.152;5.844;2023-03-19T11:35:20;41.25;;;21.55;;
54201;SDS011;40108;53.152;5.844;2023-03-19T11:37:53;43.15;;;22.42;;
54201;SDS011;40108;53.152;5.844;2023-03-19T11:45:54;42.70;;;22.52;;
54201;SDS011;40108;53.152;5.844;2023-03-19T11:48:58;43.00;;;23.13;;
54201;SDS011;40108;53.152;5.844;2023-03-19T11:52:01;36.67;;;21.90;;
54201;SDS011;40108;53.152;5.844;2023-03-19T11:59:59;44.85;;;24.67;;
54201;SDS011;40108;53.152;5.844;2023-03-19T12:08:22;48.70;;;25.65;;
54201;SDS011;40108;53.152;5.844;2023-03-19T12:19:51;58.53;;;29.90;;
54201;SDS011;40108;53.152;5.844;2023-03-19T12:30:28;62.22;;;31.30;;
54201;SDS011;40108;53.152;5.844;2023-03-19T12:33:23;57.88;;;28.52;;
54201;SDS011;40108;53.152;5.844;2023-03-19T12:36:11;55.97;;;27.70;;
54201;SDS011;40108;53.152;5.844;2023-03-19T12:41:10;55.85;;;28.63;;
54201;SDS011;40108;53.152;5.844;2023-03-19T12:44:11;58.30;;;29.40;;
54201;SDS011;40108;53.152;5.844;2023-03-19T12:46:48;61.95;;;30.80;;
54201;SDS011;40108;53.152;5.844;2023-03-19T12:49:24;58.33;;;28.95;;
54201;SDS011;40108;53.152;5.844;2023-03-19T12:57:50;55.25;;;30.35;;
54201;SDS011;40108;53.152;5.844;2023-03-19T13:00:25;60.83;;;30.02;;
54201;SDS011;40108;53.152;5.844;2023-03-19T13:06:13;54.92;;;28.88;;
54201;SDS011;40108;53.152;5.844;2023-03-19T13:08:31;53.20;;;27.98;;
54201;SDS011;40108;53.152;5.844;2023-03-19T13:11:04;51.92;;;27.38;;
54201;SDS011;40108;53.152;5.844;2023-03-19T13:13:50;46.78;;;25.17;;
54201;SDS011;40108;53.152;5.844;2023-03-19T13:22:01;49.10;;;24.90;;
54201;SDS011;40108;53.152;5.844;2023-03-19T13:24:34;48.25;;;26.05;;
54201;SDS011;40108;53.152;5.844;2023-03-19T13:27:02;45.00;;;25.13;;
54201;SDS011;40108;53.152;5.844;2023-03-19T13:29:33;46.15;;;24.55;;
54201;SDS011;40108;53.152;5.844;2023-03-19T13:32:06;49.75;;;25.13;;
54201;SDS011;40108;53.152;5.844;2023-03-19T13:34:48;55.78;;;27.77;;
54201;SDS011;40108;53.152;5.844;2023-03-19T13:37:18;53.85;;;27.15;;
54201;SDS011;40108;53.152;5.844;2023-03-19T13:39:45;56.67;;;28.15;;
54201;SDS011;40108;53.152;5.844;2023-03-19T13:48:14;48.10;;;26.27;;
54201;SDS011;40108;53.152;5.844;2023-03-19T13:51:12;49.67;;;25.40;;
54201;SDS011;40108;53.152;5.844;2023-03-19T13:59:32;46.70;;;23.92;;
54201;SDS011;40108;53.152;5.844;2023-03-19T14:07:40;43.22;;;24.10;;
54201;SDS011;40108;53.152;5.844;2023-03-19T14:10:20;42.88;;;24.92;;
54201;SDS011;40108;53.152;5.844;2023-03-19T14:12:59;44.55;;;24.23;;
54201;SDS011;40108;53.152;5.844;2023-03-19T14:15:29;49.15;;;25.58;;
54201;SDS011;40108;53.152;5.844;2023-03-19T14:17:59;46.10;;;26.13;;
54201;SDS011;40108;53.152;5.844;2023-03-19T14:20:28;51.58;;;27.92;;
54201;SDS011;40108;53.152;5.844;2023-03-19T14:23:02;50.03;;;26.42;;
54201;SDS011;40108;53.152;5.844;2023-03-19T14:25:54;48.22;;;25.20;;
54201;SDS011;40108;53.152;5.844;2023-03-19T14:28:36;48.83;;;26.00;;
54201;SDS011;40108;53.152;5.844;2023-03-19T14:36:28;49.17;;;26.85;;
54201;SDS011;40108;53.152;5.844;2023-03-19T14:39:02;49.70;;;27.05;;
54201;SDS011;40108;53.152;5.844;2023-03-19T14:41:32;44.70;;;25.38;;
54201;SDS011;40108;53.152;5.844;2023-03-19T14:47:10;38.78;;;23.92;;
54201;SDS011;40108;53.152;5.844;2023-03-19T14:50:12;42.53;;;24.90;;
54201;SDS011;40108;53.152;5.844;2023-03-19T14:55:48;64.13;;;29.02;;
54201;SDS011;40108;53.152;5.844;2023-03-19T14:58:15;71.90;;;27.52;;
54201;SDS011;40108;53.152;5.844;2023-03-19T15:00:46;73.30;;;28.50;;
54201;SDS011;40108;53.152;5.844;2023-03-19T15:03:19;78.55;;;28.65;;
54201;SDS011;40108;53.152;5.844;2023-03-19T15:05:56;70.30;;;28.40;;
54201;SDS011;40108;53.152;5.844;2023-03-19T15:08:24;71.22;;;27.13;;
54201;SDS011;40108;53.152;5.844;2023-03-19T15:16:18;69.95;;;27.20;;
54201;SDS011;40108;53.152;5.844;2023-03-19T15:19:08;64.38;;;24.88;;
54201;SDS011;40108;53.152;5.844;2023-03-19T15:21:35;55.70;;;23.23;;
54201;SDS011;40108;53.152;5.844;2023-03-19T15:24:02;57.92;;;24.08;;
54201;SDS011;40108;53.152;5.844;2023-03-19T15:26:35;56.65;;;25.33;;
54201;SDS011;40108;53.152;5.844;2023-03-19T15:29:01;57.65;;;24.25;;
54201;SDS011;40108;53.152;5.844;2023-03-19T15:31:46;57.67;;;24.60;;
54201;SDS011;40108;53.152;5.844;2023-03-19T15:37:00;51.33;;;22.45;;
54201;SDS011;40108;53.152;5.844;2023-03-19T15:39:42;52.70;;;23.15;;
54201;SDS011;40108;53.152;5.844;2023-03-19T15:42:13;48.72;;;21.77;;
54201;SDS011;40108;53.152;5.844;2023-03-19T15:44:42;46.67;;;21.55;;
54201;SDS011;40108;53.152;5.844;2023-03-19T15:47:16;49.57;;;21.47;;
54201;SDS011;40108;53.152;5.844;2023-03-19T15:49:53;52.65;;;22.25;;
54201;SDS011;40108;53.152;5.844;2023-03-19T15:52:23;43.17;;;19.85;;
54201;SDS011;40108;53.152;5.844;2023-03-19T15:54:52;39.65;;;18.73;;
54201;SDS011;40108;53.152;5.844;2023-03-19T15:57:19;41.10;;;19.25;;
54201;SDS011;40108;53.152;5.844;2023-03-19T15:59:49;28.50;;;16.27;;
54201;SDS011;40108;53.152;5.844;2023-03-19T16:02:21;27.98;;;14.93;;
54201;SDS011;40108;53.152;5.844;2023-03-19T16:04:49;27.27;;;15.90;;
54201;SDS011;40108;53.152;5.844;2023-03-19T16:07:49;27.08;;;14.07;;
54201;SDS011;40108;53.152;5.844;2023-03-19T16:12:52;21.40;;;12.93;;
54201;SDS011;40108;53.152;5.844;2023-03-19T16:15:41;26.27;;;13.68;;
54201;SDS011;40108;53.152;5.844;2023-03-19T16:20:41;23.30;;;12.27;;
54201;SDS011;40108;53.152;5.844;2023-03-19T16:23:10;24.55;;;12.65;;
54201;SDS011;40108;53.152;5.844;2023-03-19T16:28:17;38.33;;;14.15;;
54201;SDS011;40108;53.152;5.844;2023-03-19T16:30:49;33.60;;;13.60;;
54201;SDS011;40108;53.152;5.844;2023-03-19T16:33:15;32.28;;;12.45;;
54201;SDS011;40108;53.152;5.844;2023-03-19T16:35:43;33.50;;;13.13;;
54201;SDS011;40108;53.152;5.844;2023-03-19T16:40:45;30.10;;;13.27;;
54201;SDS011;40108;53.152;5.844;2023-03-19T16:43:13;29.67;;;12.25;;
54201;SDS011;40108;53.152;5.844;2023-03-19T16:45:50;33.83;;;12.65;;
54201;SDS011;40108;53.152;5.844;2023-03-19T16:48:36;38.38;;;14.70;;
54201;SDS011;40108;53.152;5.844;2023-03-19T16:51:03;39.50;;;14.70;;
54201;SDS011;40108;53.152;5.844;2023-03-19T16:53:33;36.33;;;13.38;;
54201;SDS011;40108;53.152;5.844;2023-03-19T16:55:59;32.58;;;12.88;;
54201;SDS011;40108;53.152;5.844;2023-03-19T16:58:30;28.35;;;12.43;;
54201;SDS011;40108;53.152;5.844;2023-03-19T17:01:00;30.38;;;11.82;;
54201;SDS011;40108;53.152;5.844;2023-03-19T17:03:26;30.85;;;11.88;;